Arklow Rock — PBZM — position and weather

sailwx.info

Track history (hours):
 
Tides and Currents Weather Stations Pressure Air Temp Water Temp Dewpoint Dewpoint Depression Visibility Wind Speed Wind Dir Waves Ship Positions

Arklow Rock

Last reported at 2016-Dec-01 06:23 UTC. Time now 2016-Dec-03 21:54 UTC.
Position N 51°08' W 009°59'.

Length 90 m; draft 5.3 m.

Type: Cargo ship. MMSI: 246002000.

Date/timePositionNaut miles runAvg speedWind from/ knotsBaromVisibWave heightAir tempDewpointWater temp
2016-Dec-01 06:23N 51°08' W 009°59'1011.6
2016-Dec-01 05:33N 51°16' W 010°07'1111.3
2016-Dec-01 04:34N 51°26' W 010°16'99 9.7
2016-Nov-30 18:25N 53°00' W 009°30'12 0.3
2016-Nov-29 00:06N 53°12' W 009°31'162 6.9
2016-Nov-28 00:33N 55°21' W 006°42'1413.5
2016-Nov-27 23:33N 55°16' W 006°20'2712.3
2016-Nov-27 21:20N 54°56' W 005°47'911.2
2016-Nov-27 20:33N 54°49' W 005°39'1010.1
2016-Nov-27 19:32N 54°41' W 005°49'4 0.5
2016-Nov-27 11:22N 54°37' W 005°54'0 0.0
2016-Nov-27 09:28N 54°37' W 005°54'0 0.0
2016-Nov-26 23:16N 54°37' W 005°54'1 1.6
2016-Nov-26 22:30N 54°38' W 005°53'7 7.3
2016-Nov-26 21:33N 54°41' W 005°42'0 0.1
2016-Nov-26 20:33N 54°41' W 005°42'0 0.0
2016-Nov-26 19:30N 54°41' W 005°42'0 0.0
2016-Nov-26 18:33N 54°41' W 005°42'0 0.0
2016-Nov-26 17:33N 54°41' W 005°42'0 0.0
2016-Nov-26 14:30N 54°41' W 005°42'0 0.0
2016-Nov-26 13:33N 54°41' W 005°42'0 0.0
2016-Nov-26 12:30N 54°41' W 005°42'0 0.0
2016-Nov-26 11:33N 54°41' W 005°42'0 0.0
2016-Nov-26 10:33N 54°41' W 005°42'0 0.0
2016-Nov-26 09:33N 54°41' W 005°42'0 0.0
2016-Nov-26 08:30N 54°41' W 005°42'0 0.0
2016-Nov-26 07:30N 54°41' W 005°42'0 0.0
2016-Nov-26 06:33N 54°41' W 005°42'0 0.0
2016-Nov-26 05:33N 54°41' W 005°42'0 0.0
2016-Nov-26 04:27N 54°41' W 005°42'0 0.0
2016-Nov-26 03:33N 54°41' W 005°42'0 0.0
2016-Nov-26 02:33N 54°41' W 005°42'0 0.0
2016-Nov-26 01:21N 54°41' W 005°42'0 0.0
2016-Nov-26 00:14N 54°41' W 005°42'0 0.0
2016-Nov-25 23:32N 54°41' W 005°42'0 0.0
2016-Nov-25 22:32N 54°41' W 005°42'0 0.0
2016-Nov-25 20:05N 54°41' W 005°42'0 0.0
2016-Nov-25 18:32N 54°41' W 005°42'0 0.0
2016-Nov-25 17:26N 54°41' W 005°42'0 0.0
2016-Nov-25 16:29N 54°41' W 005°42'0 0.0
2016-Nov-25 15:32N 54°41' W 005°42'0 0.0
2016-Nov-25 14:32N 54°41' W 005°42'0 0.0
2016-Nov-25 13:29N 54°41' W 005°42'0 0.0
2016-Nov-25 12:26N 54°41' W 005°42'0 0.0
2016-Nov-25 11:29N 54°41' W 005°42'0 0.1
2016-Nov-25 10:20N 54°41' W 005°42'0 0.0
2016-Nov-25 09:20N 54°41' W 005°42'0 0.0
2016-Nov-25 08:32N 54°41' W 005°42'0 0.1
2016-Nov-25 07:32N 54°41' W 005°42'0 0.0
2016-Nov-25 06:32N 54°41' W 005°42'0 0.0
2016-Nov-25 05:29N 54°41' W 005°42'0 0.0
2016-Nov-25 04:32N 54°41' W 005°42'0 0.0
2016-Nov-25 03:23N 54°41' W 005°42'0 0.0
2016-Nov-25 02:32N 54°41' W 005°42'0 0.0
2016-Nov-25 01:32N 54°41' W 005°42'0 0.0
2016-Nov-25 00:29N 54°41' W 005°42'0 0.0
2016-Nov-24 23:32N 54°41' W 005°42'0 0.1
2016-Nov-24 22:32N 54°41' W 005°42'1 1.1
2016-Nov-24 21:33N 54°41' W 005°40'9 9.3
2016-Nov-24 20:33N 54°41' W 005°24'1111.5
2016-Nov-24 19:33N 54°29' W 005°21'1111.0
2016-Nov-24 18:33N 54°18' W 005°21'1111.2
2016-Nov-24 17:34N 54°07' W 005°21'177 8.3
2016-Nov-23 20:17N 51°22' W 003°38'1211.9
2016-Nov-23 19:16N 51°21' W 003°19'811.3
2016-Nov-23 18:33N 51°22' W 003°06'1313.5
2016-Nov-23 17:33N 51°30' W 002°48'3 3.0
2016-Nov-23 16:33N 51°30' W 002°43'0 0.0
2016-Nov-23 15:33N 51°30' W 002°43'0 0.0
2016-Nov-23 14:33N 51°30' W 002°43'0 0.0
2016-Nov-23 13:33N 51°30' W 002°43'0 0.0
2016-Nov-23 12:32N 51°30' W 002°43'0 0.0
2016-Nov-23 11:32N 51°30' W 002°43'0 0.0
2016-Nov-23 10:32N 51°30' W 002°43'0 0.0
2016-Nov-23 09:32N 51°30' W 002°43'0 0.0
2016-Nov-23 08:32N 51°30' W 002°43'0 0.0
2016-Nov-23 07:32N 51°30' W 002°43'0 0.0
2016-Nov-23 06:32N 51°30' W 002°43'0 0.0
2016-Nov-23 03:32N 51°30' W 002°43'0 0.0
2016-Nov-23 02:32N 51°30' W 002°43'0 0.0
2016-Nov-23 00:32N 51°30' W 002°43'0 0.0
2016-Nov-22 23:32N 51°30' W 002°43'0 0.0
2016-Nov-22 22:32N 51°30' W 002°43'0 0.0
2016-Nov-22 20:32N 51°30' W 002°43'0 0.0
2016-Nov-22 19:32N 51°30' W 002°43'0 0.0
2016-Nov-22 17:32N 51°30' W 002°43'0 0.0
2016-Nov-22 16:32N 51°30' W 002°43'0 0.0
2016-Nov-22 15:32N 51°30' W 002°43'0 0.0
2016-Nov-22 14:32N 51°30' W 002°43'0 0.0
2016-Nov-22 13:32N 51°30' W 002°43'0 0.0
2016-Nov-22 10:32N 51°30' W 002°43'0 0.0
2016-Nov-22 09:32N 51°30' W 002°43'0 0.0
2016-Nov-22 08:32N 51°30' W 002°43'0 0.0
2016-Nov-22 07:32N 51°30' W 002°43'0 0.0
2016-Nov-22 05:32N 51°30' W 002°43'0 0.0
2016-Nov-22 04:32N 51°30' W 002°43'0 0.0
2016-Nov-22 03:32N 51°30' W 002°43'0 0.0
2016-Nov-22 02:31N 51°30' W 002°43'0 0.0
2016-Nov-21 23:31N 51°30' W 002°43'0 0.0
2016-Nov-21 21:31N 51°30' W 002°43'0 0.0
2016-Nov-21 17:28N 51°30' W 002°43'0 0.0
2016-Nov-21 14:28N 51°30' W 002°43'0 0.1
2016-Nov-21 13:31N 51°30' W 002°43'0 0.0
2016-Nov-21 12:31N 51°30' W 002°43'0 0.0
2016-Nov-21 11:31N 51°30' W 002°43'0 0.0
2016-Nov-21 10:31N 51°30' W 002°43'0 0.0
2016-Nov-21 08:31N 51°30' W 002°43'0 0.0
2016-Nov-21 07:31N 51°30' W 002°43'  
Track history (hours):
 
Tides and Currents Weather Stations Pressure Air Temp Water Temp Dewpoint Dewpoint Depression Visibility Wind Speed Wind Dir Waves Ship Positions

Arklow Rock

Last reported at 2016-Dec-01 06:23 UTC. Time now 2016-Dec-03 21:54 UTC.
Position N 51°08' W 009°59'.

Length 90 m; draft 5.3 m.

Type: Cargo ship. MMSI: 246002000.

Date/timePositionNaut miles runAvg speedWind from/ knotsBaromVisibWave heightAir tempDewpointWater temp
2016-Dec-01 06:23N 51°08' W 009°59'1011.6
2016-Dec-01 05:33N 51°16' W 010°07'1111.3
2016-Dec-01 04:34N 51°26' W 010°16'99 9.7
2016-Nov-30 18:25N 53°00' W 009°30'12 0.3
2016-Nov-29 00:06N 53°12' W 009°31'162 6.9
2016-Nov-28 00:33N 55°21' W 006°42'1413.5
2016-Nov-27 23:33N 55°16' W 006°20'2712.3
2016-Nov-27 21:20N 54°56' W 005°47'911.2
2016-Nov-27 20:33N 54°49' W 005°39'1010.1
2016-Nov-27 19:32N 54°41' W 005°49'4 0.5
2016-Nov-27 11:22N 54°37' W 005°54'0 0.0
2016-Nov-27 09:28N 54°37' W 005°54'0 0.0
2016-Nov-26 23:16N 54°37' W 005°54'1 1.6
2016-Nov-26 22:30N 54°38' W 005°53'7 7.3
2016-Nov-26 21:33N 54°41' W 005°42'0 0.1
2016-Nov-26 20:33N 54°41' W 005°42'0 0.0
2016-Nov-26 19:30N 54°41' W 005°42'0 0.0
2016-Nov-26 18:33N 54°41' W 005°42'0 0.0
2016-Nov-26 17:33N 54°41' W 005°42'0 0.0
2016-Nov-26 14:30N 54°41' W 005°42'0 0.0
2016-Nov-26 13:33N 54°41' W 005°42'0 0.0
2016-Nov-26 12:30N 54°41' W 005°42'0 0.0
2016-Nov-26 11:33N 54°41' W 005°42'0 0.0
2016-Nov-26 10:33N 54°41' W 005°42'0 0.0
2016-Nov-26 09:33N 54°41' W 005°42'0 0.0
2016-Nov-26 08:30N 54°41' W 005°42'0 0.0
2016-Nov-26 07:30N 54°41' W 005°42'0 0.0
2016-Nov-26 06:33N 54°41' W 005°42'0 0.0
2016-Nov-26 05:33N 54°41' W 005°42'0 0.0
2016-Nov-26 04:27N 54°41' W 005°42'0 0.0
2016-Nov-26 03:33N 54°41' W 005°42'0 0.0
2016-Nov-26 02:33N 54°41' W 005°42'0 0.0
2016-Nov-26 01:21N 54°41' W 005°42'0 0.0
2016-Nov-26 00:14N 54°41' W 005°42'0 0.0
2016-Nov-25 23:32N 54°41' W 005°42'0 0.0
2016-Nov-25 22:32N 54°41' W 005°42'0 0.0
2016-Nov-25 20:05N 54°41' W 005°42'0 0.0
2016-Nov-25 18:32N 54°41' W 005°42'0 0.0
2016-Nov-25 17:26N 54°41' W 005°42'0 0.0
2016-Nov-25 16:29N 54°41' W 005°42'0 0.0
2016-Nov-25 15:32N 54°41' W 005°42'0 0.0
2016-Nov-25 14:32N 54°41' W 005°42'0 0.0
2016-Nov-25 13:29N 54°41' W 005°42'0 0.0
2016-Nov-25 12:26N 54°41' W 005°42'0 0.0
2016-Nov-25 11:29N 54°41' W 005°42'0 0.1
2016-Nov-25 10:20N 54°41' W 005°42'0 0.0
2016-Nov-25 09:20N 54°41' W 005°42'0 0.0
2016-Nov-25 08:32N 54°41' W 005°42'0 0.1
2016-Nov-25 07:32N 54°41' W 005°42'0 0.0
2016-Nov-25 06:32N 54°41' W 005°42'0 0.0
2016-Nov-25 05:29N 54°41' W 005°42'0 0.0
2016-Nov-25 04:32N 54°41' W 005°42'0 0.0
2016-Nov-25 03:23N 54°41' W 005°42'0 0.0
2016-Nov-25 02:32N 54°41' W 005°42'0 0.0
2016-Nov-25 01:32N 54°41' W 005°42'0 0.0
2016-Nov-25 00:29N 54°41' W 005°42'0 0.0
2016-Nov-24 23:32N 54°41' W 005°42'0 0.1
2016-Nov-24 22:32N 54°41' W 005°42'1 1.1
2016-Nov-24 21:33N 54°41' W 005°40'9 9.3
2016-Nov-24 20:33N 54°41' W 005°24'1111.5
2016-Nov-24 19:33N 54°29' W 005°21'1111.0
2016-Nov-24 18:33N 54°18' W 005°21'1111.2
2016-Nov-24 17:34N 54°07' W 005°21'177 8.3
2016-Nov-23 20:17N 51°22' W 003°38'1211.9
2016-Nov-23 19:16N 51°21' W 003°19'811.3
2016-Nov-23 18:33N 51°22' W 003°06'1313.5
2016-Nov-23 17:33N 51°30' W 002°48'3 3.0
2016-Nov-23 16:33N 51°30' W 002°43'0 0.0
2016-Nov-23 15:33N 51°30' W 002°43'0 0.0
2016-Nov-23 14:33N 51°30' W 002°43'0 0.0
2016-Nov-23 13:33N 51°30' W 002°43'0 0.0
2016-Nov-23 12:32N 51°30' W 002°43'0 0.0
2016-Nov-23 11:32N 51°30' W 002°43'0 0.0
2016-Nov-23 10:32N 51°30' W 002°43'0 0.0
2016-Nov-23 09:32N 51°30' W 002°43'0 0.0
2016-Nov-23 08:32N 51°30' W 002°43'0 0.0
2016-Nov-23 07:32N 51°30' W 002°43'0 0.0
2016-Nov-23 06:32N 51°30' W 002°43'0 0.0
2016-Nov-23 03:32N 51°30' W 002°43'0 0.0
2016-Nov-23 02:32N 51°30' W 002°43'0 0.0
2016-Nov-23 00:32N 51°30' W 002°43'0 0.0
2016-Nov-22 23:32N 51°30' W 002°43'0 0.0
2016-Nov-22 22:32N 51°30' W 002°43'0 0.0
2016-Nov-22 20:32N 51°30' W 002°43'0 0.0
2016-Nov-22 19:32N 51°30' W 002°43'0 0.0
2016-Nov-22 17:32N 51°30' W 002°43'0 0.0
2016-Nov-22 16:32N 51°30' W 002°43'0 0.0
2016-Nov-22 15:32N 51°30' W 002°43'0 0.0
2016-Nov-22 14:32N 51°30' W 002°43'0 0.0
2016-Nov-22 13:32N 51°30' W 002°43'0 0.0
2016-Nov-22 10:32N 51°30' W 002°43'0 0.0
2016-Nov-22 09:32N 51°30' W 002°43'0 0.0
2016-Nov-22 08:32N 51°30' W 002°43'0 0.0
2016-Nov-22 07:32N 51°30' W 002°43'0 0.0
2016-Nov-22 05:32N 51°30' W 002°43'0 0.0
2016-Nov-22 04:32N 51°30' W 002°43'0 0.0
2016-Nov-22 03:32N 51°30' W 002°43'0 0.0
2016-Nov-22 02:31N 51°30' W 002°43'0 0.0
2016-Nov-21 23:31N 51°30' W 002°43'0 0.0
2016-Nov-21 21:31N 51°30' W 002°43'0 0.0
2016-Nov-21 17:28N 51°30' W 002°43'0 0.0
2016-Nov-21 14:28N 51°30' W 002°43'0 0.1
2016-Nov-21 13:31N 51°30' W 002°43'0 0.0
2016-Nov-21 12:31N 51°30' W 002°43'0 0.0
2016-Nov-21 11:31N 51°30' W 002°43'0 0.0
2016-Nov-21 10:31N 51°30' W 002°43'0 0.0
2016-Nov-21 08:31N 51°30' W 002°43'0 0.0
2016-Nov-21 07:31N 51°30' W 002°43'  

Dump ship's entire track history